createdAt,value
2023-04-19T00:01:41.224Z,31
2023-04-19T00:30:57.376Z,30
2023-04-19T01:00:12.370Z,33
2023-04-19T01:29:23.603Z,31
2023-04-19T01:58:35.637Z,32
2023-04-19T02:27:46.622Z,32
2023-04-19T02:57:02.689Z,33
2023-04-19T03:26:06.830Z,32
2023-04-19T03:55:17.436Z,33
2023-04-19T04:24:32.883Z,35
2023-04-19T04:53:47.110Z,33
2023-04-19T05:22:50.820Z,34
2023-04-19T05:52:09.420Z,35
2023-04-19T06:21:19.748Z,35
2023-04-19T06:50:32.473Z,32
2023-04-19T07:19:46.449Z,39
2023-04-19T07:48:56.945Z,42
2023-04-19T08:18:11.952Z,38
2023-04-19T08:47:29.541Z,35
2023-04-19T09:16:09.061Z,34
2023-04-19T09:45:28.971Z,33
2023-04-19T09:46:33.280Z,34
2023-04-19T10:15:12.288Z,30
2023-04-19T10:44:26.367Z,32
2023-04-19T11:13:50.200Z,28
2023-04-19T11:43:01.512Z,28
2023-04-19T12:12:06.077Z,28
2023-04-19T12:41:15.606Z,28
2023-04-19T13:10:33.398Z,22
2023-04-19T13:39:56.836Z,26
2023-04-19T14:08:41.648Z,-1
2023-04-19T14:37:58.465Z,32
2023-04-19T15:07:08.493Z,28
2023-04-19T15:36:10.966Z,28
2023-04-19T16:05:30.893Z,28
2023-04-19T16:34:45.010Z,31
2023-04-19T17:04:01.355Z,28
2023-04-19T17:33:03.373Z,29
2023-04-19T18:02:16.348Z,28
2023-04-19T18:31:17.737Z,28
2023-04-19T19:00:36.340Z,31
2023-04-19T19:29:46.449Z,33
2023-04-19T19:59:02.705Z,32
2023-04-19T20:28:10.685Z,25
2023-04-19T20:57:22.180Z,21
2023-04-19T21:26:33.186Z,12
2023-04-19T21:55:46.353Z,12
2023-04-19T22:24:57.793Z,9
2023-04-19T22:53:45.872Z,11
2023-04-19T23:22:56.320Z,10
2023-04-19T23:52:05.167Z,10
